Airfield :







YOU CAN JOIN US ON...

 
LOGIN :

Register | Disclaimer

   EN    FR    IT 

 









Legend :    VFR   Marginal VFR   IFR   Intensive IFR   Very Intensive IFR
Visi :
Ceiling :
>= 8 km
>= 3000ft
5 to 8 km
1000 to 3000 ft
1500m to 5 km
500 to 1000 ft
800 to 1500m
200 to 500 ft
< 800m
< 200 ft
Symbols :   Thunderstorms  Fog  Heavy snow  Heavy precipitations  Wind > 20 kt






- Airport Elevation : 1188 ft


KCDA - Caledonia County

CURRENT METAR :
  • 161856Z AUTO 14010G14KT 110V170 10SM CLR 13/03 A2984 RMK AO2 T01330028

EXPIRED METARs :
  • 161835Z AUTO 14008KT 110V170 10SM CLR 13/03 A2985 RMK AO2 T01330030
  • 161815Z AUTO 14010G16KT 10SM CLR 14/03 A2986 RMK AO2 T01350027
  • 161758Z AUTO 14009G16KT 10SM CLR 13/03 A2986 RMK AO2 T01340025 10134 21013
  • 161736Z AUTO 14011G16KT 10SM CLR 13/02 A2987 RMK AO2 T01310024
  • 161718Z AUTO 13007KT 10SM CLR 13/03 A2987 RMK AO2 T01300025
  • 161656Z AUTO 13010KT 10SM CLR 12/03 A2990 RMK AO2 T01230029
  • 161638Z AUTO 14008KT 10SM CLR 11/03 A2991 RMK AO2 T01140030
  • 161616Z AUTO 14008G14KT 10SM CLR 11/03 A2992 RMK AO2 T01120025

TAF N/A



MET'MAP, your aeronautical weather chart ! - Copyright ORBIFLY December 2007 - Disclaimer

ORBIFLY MET'MAP TEAM :

Programming & Development : Alexandra Zaïnal
Concept & Development : Baudouin d'Aumeries
Co-Development & Prog : Marc-Olivier Méhu
Technical & hardware support : Manuel Goepfert

Contact : metmap@orbifly.com




SOURCES & CREDITS :

   NOAA